Time;durP1;ratioP1;P1;durP2;ratioP2;P2;SDS_P1;SDS_P2;PMS_P1;PMS_P2;Temp;Humidity;BMP_temperature;BMP_pressure;BME280_temperature;BME280_humidity;BME280_pressure;Samples;Min_cycle;Max_cycle;Signal;HPM_P1;HPM_P2
2021/06/15 00:01:58;;;;;;;8.00;3.07;;;;;;;;;;4998651;28;20188;-89
2021/06/15 00:05:04;;;;;;;6.57;3.83;;;;;;;;;;5009541;28;20220;-89
2021/06/15 00:08:08;;;;;;;4.80;2.80;;;;;;;;;;5009817;28;20192;-89
2021/06/15 00:11:13;;;;;;;7.50;3.47;;;;;;;;;;5020841;28;20217;-89
2021/06/15 00:14:17;;;;;;;4.87;3.20;;;;;;;;;;4998796;28;20180;-89
2021/06/15 00:17:22;;;;;;;4.47;2.97;;;;;;;;;;5009652;28;20181;-89
2021/06/15 00:20:26;;;;;;;4.80;3.33;;;;;;;;;;5010102;28;20181;-90
2021/06/15 00:23:30;;;;;;;6.57;3.30;;;;;;;;;;4998466;28;20173;-89
2021/06/15 00:26:40;;;;;;;4.50;3.00;;;;;;;;;;5011676;28;20224;-89
2021/06/15 00:29:44;;;;;;;7.13;3.70;;;;;;;;;;5002282;28;20185;-90
2021/06/15 00:32:50;;;;;;;4.07;2.73;;;;;;;;;;5002037;28;20525;-89
2021/06/15 00:35:55;;;;;;;5.43;3.47;;;;;;;;;;5002111;28;20212;-89
2021/06/15 00:39:00;;;;;;;6.67;3.20;;;;;;;;;;5013195;28;20541;-90
2021/06/15 00:42:06;;;;;;;7.60;3.33;;;;;;;;;;5013113;28;20624;-90
2021/06/15 00:45:14;;;;;;;6.30;3.70;;;;;;;;;;5013185;28;20560;-90
2021/06/15 00:48:43;;;;;;;7.17;3.33;;;;;;;;;;5015897;28;20180;-89
2021/06/15 00:51:48;;;;;;;3.50;3.20;;;;;;;;;;5001445;28;20220;-90
2021/06/15 00:54:58;;;;;;;4.87;3.37;;;;;;;;;;5012713;28;20221;-89
2021/06/15 00:58:02;;;;;;;4.40;3.50;;;;;;;;;;5012739;28;20196;-89
2021/06/15 01:01:07;;;;;;;5.63;3.40;;;;;;;;;;5024188;28;20177;-89
2021/06/15 01:04:13;;;;;;;5.70;3.37;;;;;;;;;;5024114;28;20636;-89
2021/06/15 01:07:26;;;;;;;4.83;3.50;;;;;;;;;;5001517;28;20177;-89
2021/06/15 01:10:31;;;;;;;4.90;3.53;;;;;;;;;;5012397;28;20201;-90
2021/06/15 01:14:05;;;;;;;7.60;3.70;;;;;;;;;;5001927;28;20181;-89
2021/06/15 01:17:18;;;;;;;6.50;3.57;;;;;;;;;;5012612;28;20185;-90
2021/06/15 01:20:28;;;;;;;6.40;3.50;;;;;;;;;;5012624;28;20180;-89
2021/06/15 01:23:48;;;;;;;5.23;3.47;;;;;;;;;;5012325;28;20173;-89
2021/06/15 01:27:27;;;;;;;5.20;3.73;;;;;;;;;;5012576;28;20185;-89
2021/06/15 01:30:48;;;;;;;7.50;4.03;;;;;;;;;;5001186;28;20173;-89
2021/06/15 01:34:02;;;;;;;5.00;3.33;;;;;;;;;;5001142;28;20189;-89
2021/06/15 01:37:15;;;;;;;5.43;3.17;;;;;;;;;;5000871;28;20181;-89
2021/06/15 01:40:27;;;;;;;4.17;3.40;;;;;;;;;;5012081;28;20185;-89
2021/06/15 01:43:43;;;;;;;5.17;3.97;;;;;;;;;;5002359;28;20173;-90
2021/06/15 01:47:00;;;;;;;4.53;4.10;;;;;;;;;;5011822;28;20177;-89
2021/06/15 01:50:07;;;;;;;7.47;4.47;;;;;;;;;;5023267;28;20181;-89
2021/06/15 01:53:19;;;;;;;5.73;3.67;;;;;;;;;;5000693;28;20181;-90
2021/06/15 01:56:28;;;;;;;4.80;3.77;;;;;;;;;;5011447;28;20698;-89
2021/06/15 01:59:38;;;;;;;6.70;4.30;;;;;;;;;;5000854;28;20197;-89
2021/06/15 02:02:44;;;;;;;6.27;3.30;;;;;;;;;;5011660;28;20181;-89
2021/06/15 02:05:53;;;;;;;5.00;4.10;;;;;;;;;;5000369;28;20224;-89
2021/06/15 02:08:59;;;;;;;6.27;4.40;;;;;;;;;;5000364;28;20177;-90
2021/06/15 02:12:18;;;;;;;7.83;3.70;;;;;;;;;;5012735;28;20707;-90
2021/06/15 02:15:57;;;;;;;6.17;3.73;;;;;;;;;;5014754;28;20224;-89
2021/06/15 02:19:32;;;;;;;7.60;3.87;;;;;;;;;;5002746;28;20196;-88
2021/06/15 02:22:44;;;;;;;6.20;4.00;;;;;;;;;;5000342;28;20169;-90
2021/06/15 02:26:02;;;;;;;5.30;3.70;;;;;;;;;;4997575;28;20220;-84
2021/06/15 02:29:11;;;;;;;5.63;3.67;;;;;;;;;;4997401;28;20193;-85
2021/06/15 02:32:20;;;;;;;7.90;3.90;;;;;;;;;;5019520;28;20209;-85
2021/06/15 02:35:26;;;;;;;5.07;3.50;;;;;;;;;;4997158;28;20221;-84
2021/06/15 02:38:39;;;;;;;4.07;3.40;;;;;;;;;;5019667;28;20181;-84
2021/06/15 02:41:44;;;;;;;6.63;3.80;;;;;;;;;;5008674;28;20545;-85
2021/06/15 02:44:52;;;;;;;4.87;3.10;;;;;;;;;;4999685;28;20213;-85
2021/06/15 02:48:00;;;;;;;5.97;3.23;;;;;;;;;;5000946;28;20546;-85
2021/06/15 02:51:05;;;;;;;4.07;3.10;;;;;;;;;;5000907;28;20204;-86
2021/06/15 02:54:31;;;;;;;5.27;2.97;;;;;;;;;;5023433;28;20173;-85
2021/06/15 02:57:35;;;;;;;6.13;3.43;;;;;;;;;;5001164;28;20185;-85
2021/06/15 03:00:40;;;;;;;6.80;3.40;;;;;;;;;;5001473;28;20181;-86
2021/06/15 03:03:44;;;;;;;6.93;3.17;;;;;;;;;;5012274;28;20177;-86
2021/06/15 03:06:49;;;;;;;6.70;3.47;;;;;;;;;;5012148;28;20193;-86
2021/06/15 03:09:53;;;;;;;5.77;4.07;;;;;;;;;;5012214;28;20184;-85
2021/06/15 03:13:16;;;;;;;6.47;3.50;;;;;;;;;;5001641;28;20205;-85
2021/06/15 03:16:28;;;;;;;5.00;3.80;;;;;;;;;;5011735;28;20221;-86
2021/06/15 03:19:40;;;;;;;7.23;3.50;;;;;;;;;;5012024;28;20185;-85
2021/06/15 03:23:06;;;;;;;7.30;3.80;;;;;;;;;;5000760;28;20529;-86
2021/06/15 03:26:16;;;;;;;6.17;3.27;;;;;;;;;;5048624;22;20228;-89
2021/06/15 03:29:24;;;;;;;4.77;3.70;;;;;;;;;;5021292;28;20172;-89
2021/06/15 03:32:28;;;;;;;5.17;3.40;;;;;;;;;;5010148;28;20208;-89
2021/06/15 03:35:37;;;;;;;5.40;3.53;;;;;;;;;;5010335;28;20220;-89
2021/06/15 03:38:43;;;;;;;5.00;3.50;;;;;;;;;;5010192;28;20172;-89
2021/06/15 03:41:51;;;;;;;5.47;3.50;;;;;;;;;;5021358;28;20176;-89
2021/06/15 03:44:59;;;;;;;7.17;3.73;;;;;;;;;;5021332;28;20181;-89
2021/06/15 03:48:06;;;;;;;5.67;3.43;;;;;;;;;;5010183;28;20173;-90
2021/06/15 03:51:13;;;;;;;5.87;2.97;;;;;;;;;;5009928;28;20177;-88
2021/06/15 03:54:20;;;;;;;6.23;3.40;;;;;;;;;;5009837;28;20181;-87
2021/06/15 03:57:25;;;;;;;8.27;3.70;;;;;;;;;;5009646;28;20212;-89
2021/06/15 04:00:32;;;;;;;6.97;3.60;;;;;;;;;;5022746;28;20181;-89
2021/06/15 04:03:38;;;;;;;4.80;3.40;;;;;;;;;;5013737;28;20181;-88
2021/06/15 04:06:50;;;;;;;6.60;3.00;;;;;;;;;;5013596;28;20220;-88
2021/06/15 04:09:55;;;;;;;8.97;3.40;;;;;;;;;;5013299;28;20189;-88
2021/06/15 04:13:02;;;;;;;4.77;3.03;;;;;;;;;;5002029;28;20221;-88
2021/06/15 04:16:07;;;;;;;5.10;3.20;;;;;;;;;;5024611;28;20560;-88
2021/06/15 04:19:18;;;;;;;7.70;3.27;;;;;;;;;;5037250;28;20185;-89
2021/06/15 04:22:28;;;;;;;4.33;3.30;;;;;;;;;;5025182;28;20620;-88
2021/06/15 04:25:37;;;;;;;7.93;3.43;;;;;;;;;;5013264;28;20181;-90
2021/06/15 04:28:42;;;;;;;5.33;3.67;;;;;;;;;;5013656;28;20185;-89
2021/06/15 04:31:50;;;;;;;7.10;3.60;;;;;;;;;;5001837;28;20181;-89
2021/06/15 04:34:59;;;;;;;4.80;3.43;;;;;;;;;;5002379;28;20185;-89
2021/06/15 04:38:08;;;;;;;13.43;3.63;;;;;;;;;;5013457;28;20181;-89
2021/06/15 04:41:16;;;;;;;21.03;4.43;;;;;;;;;;5012901;28;20189;-89
2021/06/15 04:44:24;;;;;;;9.17;4.07;;;;;;;;;;5002291;28;20177;-89
2021/06/15 04:47:32;;;;;;;14.63;4.37;;;;;;;;;;5013079;28;20224;-89
2021/06/15 04:50:37;;;;;;;8.90;3.77;;;;;;;;;;5025358;28;20177;-90
2021/06/15 04:53:43;;;;;;;16.57;4.00;;;;;;;;;;5001816;28;20208;-89
2021/06/15 04:56:49;;;;;;;6.63;3.50;;;;;;;;;;5012835;28;20579;-90
2021/06/15 04:59:56;;;;;;;9.93;4.00;;;;;;;;;;5012871;28;20691;-89
2021/06/15 05:03:00;;;;;;;6.73;3.80;;;;;;;;;;5012322;28;20536;-89
2021/06/15 05:06:06;;;;;;;7.73;4.10;;;;;;;;;;5012659;28;20221;-90
2021/06/15 05:09:13;;;;;;;4.90;3.40;;;;;;;;;;5012433;28;20541;-89
2021/06/15 05:12:20;;;;;;;10.33;4.07;;;;;;;;;;5023249;28;20209;-89
2021/06/15 05:15:27;;;;;;;6.57;3.77;;;;;;;;;;5012661;28;20185;-89
2021/06/15 05:18:31;;;;;;;5.77;4.00;;;;;;;;;;5012539;28;20197;-90
2021/06/15 05:21:52;;;;;;;7.20;4.07;;;;;;;;;;5012283;28;20201;-89
2021/06/15 05:24:59;;;;;;;6.83;4.37;;;;;;;;;;5023680;28;20197;-89
2021/06/15 05:28:04;;;;;;;5.33;3.90;;;;;;;;;;5012310;28;20181;-89
2021/06/15 05:31:08;;;;;;;12.53;4.90;;;;;;;;;;5012478;28;20176;-84
2021/06/15 05:34:12;;;;;;;7.57;4.90;;;;;;;;;;5012884;28;20212;-85
2021/06/15 05:37:18;;;;;;;8.30;4.87;;;;;;;;;;5012369;28;20579;-84
2021/06/15 05:40:22;;;;;;;7.33;5.80;;;;;;;;;;5011981;28;20205;-83
2021/06/15 05:43:26;;;;;;;8.53;6.13;;;;;;;;;;5012111;28;20555;-83
2021/06/15 05:46:31;;;;;;;9.27;5.63;;;;;;;;;;5023309;28;20212;-83
2021/06/15 05:49:35;;;;;;;8.37;5.83;;;;;;;;;;5023430;28;20177;-83
2021/06/15 05:52:41;;;;;;;7.87;5.13;;;;;;;;;;5012037;28;20204;-81
2021/06/15 05:55:46;;;;;;;29.97;7.07;;;;;;;;;;5023100;28;20213;-83
2021/06/15 05:58:50;;;;;;;20.27;5.70;;;;;;;;;;5023234;28;20184;-81
2021/06/15 06:01:55;;;;;;;8.63;4.97;;;;;;;;;;5011747;28;20181;-83
2021/06/15 06:08:08;;;;;;;14.33;5.07;;;;;;;;;;5011793;28;20177;-84
2021/06/15 06:11:13;;;;;;;20.73;5.00;;;;;;;;;;5023037;28;20181;-81
2021/06/15 06:14:17;;;;;;;16.27;5.40;;;;;;;;;;5022801;28;20216;-83
2021/06/15 06:17:21;;;;;;;16.00;4.63;;;;;;;;;;5011199;28;20216;-83
2021/06/15 06:20:25;;;;;;;16.37;5.43;;;;;;;;;;5022619;28;20173;-81
2021/06/15 06:23:30;;;;;;;20.23;5.30;;;;;;;;;;5021559;28;20173;-81
2021/06/15 06:26:34;;;;;;;29.67;6.97;;;;;;;;;;5022095;28;20572;-81
2021/06/15 06:29:38;;;;;;;27.13;7.10;;;;;;;;;;5022757;28;20636;-81
2021/06/15 06:32:43;;;;;;;16.20;5.00;;;;;;;;;;5022284;28;20208;-81
2021/06/15 06:35:47;;;;;;;14.80;4.80;;;;;;;;;;5022475;28;20568;-81
2021/06/15 06:38:52;;;;;;;12.77;4.53;;;;;;;;;;5022599;28;20185;-81
2021/06/15 06:41:56;;;;;;;8.93;4.00;;;;;;;;;;5011093;28;20197;-81
2021/06/15 06:45:00;;;;;;;9.47;4.17;;;;;;;;;;5011222;28;20177;-81
2021/06/15 06:48:07;;;;;;;8.37;3.40;;;;;;;;;;5010730;28;20177;-81
2021/06/15 06:51:11;;;;;;;8.57;3.80;;;;;;;;;;5022034;28;20513;-81
2021/06/15 06:54:15;;;;;;;15.13;4.40;;;;;;;;;;5022391;28;20560;-81
2021/06/15 06:57:19;;;;;;;9.83;3.70;;;;;;;;;;5021844;28;20220;-81
2021/06/15 07:00:24;;;;;;;10.33;3.77;;;;;;;;;;5010517;28;20192;-81
2021/06/15 07:03:28;;;;;;;9.10;3.60;;;;;;;;;;5010452;28;20200;-81
2021/06/15 07:06:32;;;;;;;10.43;3.40;;;;;;;;;;5021620;28;20208;-81
2021/06/15 07:09:36;;;;;;;11.63;4.07;;;;;;;;;;5010503;28;20200;-81
2021/06/15 07:12:41;;;;;;;11.03;3.87;;;;;;;;;;5022011;28;20197;-81
2021/06/15 07:15:45;;;;;;;6.27;3.53;;;;;;;;;;5021605;28;20216;-81
2021/06/15 07:18:49;;;;;;;9.73;3.50;;;;;;;;;;5010578;28;20628;-81
2021/06/15 07:21:53;;;;;;;7.80;3.60;;;;;;;;;;4999775;28;20189;-81
2021/06/15 07:24:58;;;;;;;7.97;3.90;;;;;;;;;;5021550;28;20177;-81
2021/06/15 07:28:02;;;;;;;8.93;3.93;;;;;;;;;;5010574;28;20181;-81
2021/06/15 07:31:08;;;;;;;11.67;3.97;;;;;;;;;;5010560;28;20185;-82
2021/06/15 07:34:12;;;;;;;10.30;3.80;;;;;;;;;;5010175;28;20545;-83
2021/06/15 07:37:16;;;;;;;6.60;3.07;;;;;;;;;;5010184;28;20216;-82
2021/06/15 07:40:24;;;;;;;11.47;3.40;;;;;;;;;;5010501;28;20177;-81
2021/06/15 07:43:30;;;;;;;3.13;2.30;;;;;;;;;;5010554;28;20173;-82
2021/06/15 07:46:34;;;;;;;8.37;2.20;;;;;;;;;;5021546;28;20217;-81
2021/06/15 07:49:38;;;;;;;9.60;2.73;;;;;;;;;;5010479;28;20180;-82
2021/06/15 07:52:44;;;;;;;7.60;2.40;;;;;;;;;;5021362;28;20181;-81
2021/06/15 07:55:48;;;;;;;5.00;2.05;;;;;;;;;;5021507;28;20216;-82
2021/06/15 07:58:52;;;;;;;12.60;2.58;;;;;;;;;;5021136;28;20193;-82
2021/06/15 08:01:56;;;;;;;3.97;2.22;;;;;;;;;;5021787;28;20541;-82
2021/06/15 08:05:00;;;;;;;5.38;2.30;;;;;;;;;;5034054;28;20179;-82
2021/06/15 08:08:05;;;;;;;3.28;1.88;;;;;;;;;;5010479;28;20192;-82
2021/06/15 08:11:09;;;;;;;4.00;2.00;;;;;;;;;;5021521;28;20520;-82
2021/06/15 08:14:13;;;;;;;3.90;2.40;;;;;;;;;;5021235;28;20213;-82
2021/06/15 08:17:17;;;;;;;4.93;2.25;;;;;;;;;;5020917;28;20211;-82
2021/06/15 08:20:21;;;;;;;17.17;2.95;;;;;;;;;;5033505;28;20181;-82
2021/06/15 08:23:27;;;;;;;4.10;2.15;;;;;;;;;;5021851;28;20167;-82
2021/06/15 08:26:31;;;;;;;68.72;7.05;;;;;;;;;;5010452;28;20227;-82
2021/06/15 08:29:35;;;;;;;8.48;2.47;;;;;;;;;;5021609;28;20181;-82
2021/06/15 08:32:39;;;;;;;4.85;2.40;;;;;;;;;;5010524;28;20180;-82
2021/06/15 08:35:44;;;;;;;2.70;2.10;;;;;;;;;;5021411;28;20205;-82
2021/06/15 08:38:48;;;;;;;20.77;3.33;;;;;;;;;;5033461;28;20185;-82
2021/06/15 08:41:52;;;;;;;5.15;2.13;;;;;;;;;;5010182;28;20177;-82
2021/06/15 08:44:56;;;;;;;5.57;2.55;;;;;;;;;;5010497;28;20181;-82
2021/06/15 08:48:00;;;;;;;4.88;2.20;;;;;;;;;;5035497;28;20177;-82
2021/06/15 08:51:05;;;;;;;4.88;2.22;;;;;;;;;;5024426;28;20189;-82
2021/06/15 08:54:18;;;;;;;5.25;2.65;;;;;;;;;;5012961;28;20213;-82
2021/06/15 08:57:23;;;;;;;3.78;2.33;;;;;;;;;;5024307;28;20212;-82
2021/06/15 09:00:27;;;;;;;6.40;2.40;;;;;;;;;;5013074;28;20173;-82
2021/06/15 09:03:33;;;;;;;3.67;2.30;;;;;;;;;;5024521;28;20173;-82
2021/06/15 09:06:37;;;;;;;14.85;2.80;;;;;;;;;;5012782;28;20217;-82
2021/06/15 09:09:47;;;;;;;4.32;2.50;;;;;;;;;;5025003;28;20549;-82
2021/06/15 09:12:51;;;;;;;6.47;2.78;;;;;;;;;;5023810;28;20189;-82
2021/06/15 09:15:57;;;;;;;5.40;2.08;;;;;;;;;;5023830;28;20216;-82
2021/06/15 09:19:14;;;;;;;5.40;2.20;;;;;;;;;;5023994;28;20181;-83
2021/06/15 09:22:34;;;;;;;3.00;1.83;;;;;;;;;;5012397;28;20205;-82
2021/06/15 09:25:38;;;;;;;3.35;2.00;;;;;;;;;;5023705;28;20225;-82
2021/06/15 09:28:49;;;;;;;3.67;2.15;;;;;;;;;;5050521;23;20232;-85
2021/06/15 09:31:54;;;;;;;3.95;1.90;;;;;;;;;;5012534;28;20177;-85
2021/06/15 09:35:03;;;;;;;3.40;2.10;;;;;;;;;;5023864;28;20205;-85
2021/06/15 09:38:07;;;;;;;5.30;1.88;;;;;;;;;;5004243;28;20210;-85
2021/06/15 09:41:42;;;;;;;10.15;2.30;;;;;;;;;;5003705;28;20548;-85
2021/06/15 09:44:46;;;;;;;5.13;2.33;;;;;;;;;;5015231;28;20182;-84
2021/06/15 09:47:51;;;;;;;30.98;3.35;;;;;;;;;;5003670;28;20217;-85
2021/06/15 09:51:01;;;;;;;4.95;2.13;;;;;;;;;;4992319;28;20636;-86
2021/06/15 09:54:05;;;;;;;11.95;2.50;;;;;;;;;;5014755;28;20214;-85
2021/06/15 09:57:12;;;;;;;9.45;2.60;;;;;;;;;;4992278;28;20624;-85
2021/06/15 10:00:18;;;;;;;6.60;2.22;;;;;;;;;;4992546;28;20186;-85
2021/06/15 10:03:22;;;;;;;27.17;3.33;;;;;;;;;;5015216;28;20178;-86
2021/06/15 10:06:34;;;;;;;6.70;2.55;;;;;;;;;;5014287;28;20178;-85
2021/06/15 10:09:38;;;;;;;13.07;2.65;;;;;;;;;;5003020;28;20637;-85
2021/06/15 10:12:43;;;;;;;24.13;3.33;;;;;;;;;;5015403;28;20178;-85
2021/06/15 10:15:49;;;;;;;3.80;2.30;;;;;;;;;;5014398;28;20210;-85
2021/06/15 10:18:53;;;;;;;5.80;2.30;;;;;;;;;;5014084;28;20213;-85
2021/06/15 10:21:58;;;;;;;5.18;2.10;;;;;;;;;;5003621;28;20186;-85
2021/06/15 10:25:04;;;;;;;4.82;2.47;;;;;;;;;;5014650;28;20197;-85
2021/06/15 10:28:10;;;;;;;8.93;2.70;;;;;;;;;;5003322;28;20225;-85
2021/06/15 10:31:15;;;;;;;4.82;2.30;;;;;;;;;;4992977;28;20521;-85
2021/06/15 10:34:49;;;;;;;3.30;1.95;;;;;;;;;;5002734;28;20213;-86
2021/06/15 10:37:53;;;;;;;3.88;1.85;;;;;;;;;;5013925;28;20222;-84
2021/06/15 10:41:01;;;;;;;3.20;2.15;;;;;;;;;;4991746;28;20186;-84
2021/06/15 10:44:08;;;;;;;12.48;2.40;;;;;;;;;;5002352;28;20362;-85
2021/06/15 10:47:15;;;;;;;2.83;1.83;;;;;;;;;;5013496;28;20182;-84
2021/06/15 10:50:44;;;;;;;3.28;1.90;;;;;;;;;;5002661;28;20186;-85
2021/06/15 10:53:49;;;;;;;10.60;2.50;;;;;;;;;;5014295;28;20658;-83
2021/06/15 10:57:24;;;;;;;3.40;1.83;;;;;;;;;;4991495;28;20182;-85
2021/06/15 11:00:28;;;;;;;3.10;2.00;;;;;;;;;;5001995;28;20633;-85
2021/06/15 11:03:43;;;;;;;3.83;1.85;;;;;;;;;;5013399;28;20174;-85
2021/06/15 11:06:54;;;;;;;3.78;1.92;;;;;;;;;;4990973;28;20174;-83
2021/06/15 11:09:59;;;;;;;5.15;1.92;;;;;;;;;;5001203;28;20178;-83
2021/06/15 11:13:06;;;;;;;2.75;1.80;;;;;;;;;;5013449;28;20178;-83
2021/06/15 11:16:35;;;;;;;2.70;2.00;;;;;;;;;;5013461;28;20206;-86
2021/06/15 11:19:40;;;;;;;24.13;3.38;;;;;;;;;;5002405;28;20616;-85
2021/06/15 11:23:12;;;;;;;6.88;2.40;;;;;;;;;;5002031;28;20182;-85
2021/06/15 11:26:16;;;;;;;4.70;2.35;;;;;;;;;;4991195;28;20186;-85
2021/06/15 11:29:40;;;;;;;4.82;2.58;;;;;;;;;;5013843;28;20229;-85
2021/06/15 11:33:13;;;;;;;7.28;2.20;;;;;;;;;;5001624;28;20186;-85
2021/06/15 11:36:40;;;;;;;2.95;2.28;;;;;;;;;;5001669;28;20206;-85
2021/06/15 11:39:45;;;;;;;6.28;2.33;;;;;;;;;;5001432;28;20181;-85
2021/06/15 11:42:51;;;;;;;2.70;1.90;;;;;;;;;;5001792;28;20185;-85
2021/06/15 11:46:09;;;;;;;3.13;2.08;;;;;;;;;;5001702;28;20178;-85
2021/06/15 11:49:14;;;;;;;4.15;2.28;;;;;;;;;;5001823;28;20218;-85
2021/06/15 11:52:18;;;;;;;4.32;2.35;;;;;;;;;;5013802;28;20512;-85
2021/06/15 11:55:28;;;;;;;2.83;2.05;;;;;;;;;;4990297;28;20560;-85
2021/06/15 11:58:37;;;;;;;5.78;1.92;;;;;;;;;;5013079;28;20551;-85
2021/06/15 12:01:41;;;;;;;5.45;2.20;;;;;;;;;;4990330;28;20178;-85
2021/06/15 12:05:15;;;;;;;3.42;2.13;;;;;;;;;;4990490;28;20178;-85
2021/06/15 12:08:20;;;;;;;4.80;2.20;;;;;;;;;;5001407;28;20590;-85
2021/06/15 12:11:24;;;;;;;3.33;2.00;;;;;;;;;;5012709;28;20628;-85
2021/06/15 12:14:38;;;;;;;3.05;1.83;;;;;;;;;;5001613;28;20218;-85
2021/06/15 12:17:48;;;;;;;2.88;2.15;;;;;;;;;;4990042;28;20217;-85
2021/06/15 12:20:55;;;;;;;3.75;2.20;;;;;;;;;;5001875;28;20186;-85
2021/06/15 12:24:00;;;;;;;6.57;2.40;;;;;;;;;;5004895;28;20523;-85
2021/06/15 12:27:07;;;;;;;2.78;2.03;;;;;;;;;;5017145;28;20515;-85
2021/06/15 12:30:12;;;;;;;6.47;2.03;;;;;;;;;;5016955;28;20170;-85
2021/06/15 12:33:26;;;;;;;4.50;2.17;;;;;;;;;;5004910;28;20186;-85
2021/06/15 12:36:36;;;;;;;5.53;2.20;;;;;;;;;;5016845;28;20538;-85
2021/06/15 12:39:41;;;;;;;6.45;2.30;;;;;;;;;;5016750;28;20182;-85
2021/06/15 12:42:49;;;;;;;6.15;2.33;;;;;;;;;;5015566;28;20205;-85
2021/06/15 12:46:18;;;;;;;6.68;2.33;;;;;;;;;;5015967;28;20178;-85
2021/06/15 12:49:23;;;;;;;5.15;2.30;;;;;;;;;;5004516;28;20221;-86
2021/06/15 12:52:32;;;;;;;4.70;1.98;;;;;;;;;;5015518;28;20201;-86
2021/06/15 12:55:42;;;;;;;4.22;2.10;;;;;;;;;;5015805;28;20680;-86
2021/06/15 12:58:49;;;;;;;3.38;2.20;;;;;;;;;;5004180;28;20217;-85
2021/06/15 13:01:54;;;;;;;5.05;2.60;;;;;;;;;;5015404;28;20182;-85
2021/06/15 13:05:04;;;;;;;3.47;2.08;;;;;;;;;;5004359;28;20182;-86
2021/06/15 13:08:08;;;;;;;3.90;2.13;;;;;;;;;;5015962;28;20696;-86
2021/06/15 13:11:13;;;;;;;5.18;2.50;;;;;;;;;;5015529;28;20181;-86
2021/06/15 13:14:22;;;;;;;2.95;1.88;;;;;;;;;;5016271;28;20194;-86
2021/06/15 13:17:28;;;;;;;5.93;2.28;;;;;;;;;;5015168;28;20175;-85
2021/06/15 13:20:36;;;;;;;3.00;2.30;;;;;;;;;;5015281;28;20182;-85
2021/06/15 13:23:41;;;;;;;4.82;2.30;;;;;;;;;;5003814;28;20202;-85
2021/06/15 13:26:49;;;;;;;3.70;2.00;;;;;;;;;;4992888;28;20174;-85
2021/06/15 13:29:54;;;;;;;3.03;2.20;;;;;;;;;;5003898;28;20531;-85
2021/06/15 13:33:10;;;;;;;4.38;2.15;;;;;;;;;;4991849;28;20182;-85
2021/06/15 13:36:22;;;;;;;8.20;2.45;;;;;;;;;;4992544;28;20541;-86
2021/06/15 13:39:27;;;;;;;5.03;2.20;;;;;;;;;;5014608;28;20226;-85
2021/06/15 13:42:32;;;;;;;4.50;2.33;;;;;;;;;;5014899;28;20181;-85
2021/06/15 13:45:37;;;;;;;4.97;2.00;;;;;;;;;;4992132;28;20198;-86
2021/06/15 13:48:43;;;;;;;3.55;2.50;;;;;;;;;;5014513;28;20217;-85
2021/06/15 13:51:47;;;;;;;6.47;2.40;;;;;;;;;;4992297;28;20664;-85
2021/06/15 13:54:51;;;;;;;4.75;2.17;;;;;;;;;;5014331;28;20186;-86
2021/06/15 13:57:57;;;;;;;2.67;1.98;;;;;;;;;;4999024;28;20217;-83
2021/06/15 14:01:02;;;;;;;18.63;3.70;;;;;;;;;;4999465;28;20182;-84
2021/06/15 14:04:06;;;;;;;3.75;2.40;;;;;;;;;;4988155;28;20182;-84
2021/06/15 14:07:11;;;;;;;3.53;2.28;;;;;;;;;;4988065;28;20181;-84
2021/06/15 14:10:18;;;;;;;4.45;2.22;;;;;;;;;;5010579;28;20182;-84
2021/06/15 14:13:22;;;;;;;2.28;1.90;;;;;;;;;;5011122;28;20182;-84
2021/06/15 14:16:26;;;;;;;7.20;2.00;;;;;;;;;;5010331;28;20217;-83
2021/06/15 14:19:31;;;;;;;4.07;2.08;;;;;;;;;;5010068;28;20799;-82
2021/06/15 14:22:36;;;;;;;2.15;1.58;;;;;;;;;;4999210;28;20548;-83
2021/06/15 14:25:42;;;;;;;5.05;2.00;;;;;;;;;;5010013;28;20182;-85
2021/06/15 14:28:46;;;;;;;4.28;2.30;;;;;;;;;;4998743;28;20225;-84
2021/06/15 14:31:50;;;;;;;3.85;2.00;;;;;;;;;;4998479;28;20520;-84
2021/06/15 14:34:54;;;;;;;9.98;2.33;;;;;;;;;;4987725;28;20206;-84
2021/06/15 14:38:01;;;;;;;5.25;2.20;;;;;;;;;;5010679;28;20221;-84
2021/06/15 14:41:06;;;;;;;4.85;1.92;;;;;;;;;;5009914;28;20182;-84
2021/06/15 14:44:11;;;;;;;4.82;2.00;;;;;;;;;;5009023;28;20178;-84
2021/06/15 14:47:15;;;;;;;7.78;2.13;;;;;;;;;;5009877;28;20181;-85
2021/06/15 14:50:19;;;;;;;3.88;2.10;;;;;;;;;;5010525;28;20190;-84
2021/06/15 14:53:23;;;;;;;3.30;1.80;;;;;;;;;;4998811;28;20182;-84
2021/06/15 14:56:28;;;;;;;4.78;2.05;;;;;;;;;;5009269;28;20614;-85
2021/06/15 14:59:33;;;;;;;2.60;2.17;;;;;;;;;;5002895;28;20580;-85
2021/06/15 15:02:38;;;;;;;3.05;2.15;;;;;;;;;;5002969;28;20205;-85
2021/06/15 15:05:42;;;;;;;3.30;2.08;;;;;;;;;;5015336;28;20512;-85
2021/06/15 15:08:47;;;;;;;7.40;2.22;;;;;;;;;;5003583;28;20560;-85
2021/06/15 15:11:52;;;;;;;6.72;2.50;;;;;;;;;;4992415;28;20182;-85
2021/06/15 15:14:58;;;;;;;7.22;2.50;;;;;;;;;;5002684;28;20625;-85
2021/06/15 15:18:02;;;;;;;9.00;2.80;;;;;;;;;;5002136;28;20213;-85
2021/06/15 15:21:06;;;;;;;6.55;2.95;;;;;;;;;;5013778;28;20182;-85
2021/06/15 15:24:10;;;;;;;3.22;2.03;;;;;;;;;;5013602;28;20202;-85
2021/06/15 15:27:18;;;;;;;3.10;2.03;;;;;;;;;;5002483;28;20531;-84
2021/06/15 15:30:23;;;;;;;5.68;2.53;;;;;;;;;;4992678;28;20181;-85
2021/06/15 15:33:27;;;;;;;3.42;2.28;;;;;;;;;;5014726;28;20205;-83
2021/06/15 15:36:32;;;;;;;4.35;2.20;;;;;;;;;;5014373;28;20205;-83
2021/06/15 15:39:37;;;;;;;2.60;2.00;;;;;;;;;;4991547;28;20217;-82
2021/06/15 15:42:47;;;;;;;7.43;2.13;;;;;;;;;;5014243;28;20523;-82
2021/06/15 15:45:54;;;;;;;2.78;2.10;;;;;;;;;;4992442;28;20178;-82
2021/06/15 15:48:59;;;;;;;2.72;2.05;;;;;;;;;;5014164;28;20214;-82
2021/06/15 15:52:03;;;;;;;4.90;2.20;;;;;;;;;;5002918;28;20177;-82
2021/06/15 15:55:08;;;;;;;4.35;2.40;;;;;;;;;;5014709;28;20182;-82
2021/06/15 15:58:13;;;;;;;4.50;2.13;;;;;;;;;;5006886;28;20217;-82
2021/06/15 16:01:17;;;;;;;3.97;2.15;;;;;;;;;;5018664;28;20195;-82
2021/06/15 16:04:21;;;;;;;5.05;2.40;;;;;;;;;;5007281;28;20197;-82
2021/06/15 16:07:27;;;;;;;2.65;1.80;;;;;;;;;;5007007;28;20195;-82
2021/06/15 16:10:31;;;;;;;9.43;2.40;;;;;;;;;;5005918;28;20655;-82
2021/06/15 16:13:35;;;;;;;5.15;2.10;;;;;;;;;;5017611;28;20173;-82
2021/06/15 16:16:39;;;;;;;2.58;1.77;;;;;;;;;;5005572;28;20208;-82
2021/06/15 16:19:43;;;;;;;9.65;2.50;;;;;;;;;;5006242;28;20183;-83
2021/06/15 16:22:47;;;;;;;5.30;2.25;;;;;;;;;;5017425;28;20204;-82
2021/06/15 16:25:52;;;;;;;5.35;1.80;;;;;;;;;;4996441;28;20628;-82
2021/06/15 16:28:56;;;;;;;9.45;2.15;;;;;;;;;;5019470;28;20227;-82
2021/06/15 16:32:00;;;;;;;7.45;1.98;;;;;;;;;;5018503;28;20185;-82
2021/06/15 16:35:05;;;;;;;5.30;1.88;;;;;;;;;;5018303;28;20253;-81
2021/06/15 16:38:10;;;;;;;3.15;1.83;;;;;;;;;;5018066;28;20224;-82
2021/06/15 16:41:16;;;;;;;4.00;2.10;;;;;;;;;;5019180;28;20199;-82
2021/06/15 16:44:20;;;;;;;6.22;1.77;;;;;;;;;;5006911;28;20196;-82
2021/06/15 16:47:24;;;;;;;6.85;1.90;;;;;;;;;;5006586;28;20174;-82
2021/06/15 16:50:29;;;;;;;3.20;1.63;;;;;;;;;;5006833;28;20186;-82
2021/06/15 16:53:32;;;;;;;3.08;1.95;;;;;;;;;;5006880;28;20182;-82
2021/06/15 16:56:38;;;;;;;5.43;2.20;;;;;;;;;;5018108;28;20206;-82
2021/06/15 16:59:43;;;;;;;5.35;2.00;;;;;;;;;;5006768;28;20633;-82
2021/06/15 17:02:48;;;;;;;21.65;2.72;;;;;;;;;;5018535;28;20185;-81
2021/06/15 17:05:52;;;;;;;9.95;2.22;;;;;;;;;;5017799;28;20182;-82
2021/06/15 17:08:56;;;;;;;8.30;2.22;;;;;;;;;;5004692;28;20213;-81
2021/06/15 17:12:00;;;;;;;15.90;2.63;;;;;;;;;;5006447;28;20193;-82
2021/06/15 17:15:06;;;;;;;13.07;2.72;;;;;;;;;;5006014;28;20563;-82
2021/06/15 17:18:13;;;;;;;5.50;2.13;;;;;;;;;;4995002;28;20232;-82
2021/06/15 17:21:17;;;;;;;5.93;1.63;;;;;;;;;;5018317;28;20200;-82
2021/06/15 17:24:21;;;;;;;3.63;1.67;;;;;;;;;;5017842;28;20199;-82
2021/06/15 17:27:25;;;;;;;3.50;1.63;;;;;;;;;;5006071;28;20553;-82
2021/06/15 17:30:29;;;;;;;5.93;1.80;;;;;;;;;;5006711;28;20522;-82
2021/06/15 17:33:34;;;;;;;3.10;1.70;;;;;;;;;;4997691;28;20179;-82
2021/06/15 17:36:38;;;;;;;3.83;1.50;;;;;;;;;;4995598;28;20206;-82
2021/06/15 17:39:42;;;;;;;4.07;1.70;;;;;;;;;;5018831;28;20179;-82
2021/06/15 17:42:51;;;;;;;1.90;1.60;;;;;;;;;;5007263;28;20178;-82
2021/06/15 17:45:56;;;;;;;4.07;1.63;;;;;;;;;;5006308;28;20183;-82
2021/06/15 17:49:00;;;;;;;2.23;1.70;;;;;;;;;;4995118;28;20215;-82
2021/06/15 17:52:04;;;;;;;3.13;1.53;;;;;;;;;;5006291;28;20185;-82
2021/06/15 17:55:10;;;;;;;2.50;1.50;;;;;;;;;;5016757;28;20182;-82
2021/06/15 17:58:14;;;;;;;3.10;1.63;;;;;;;;;;4993623;28;20232;-82
2021/06/15 18:01:19;;;;;;;8.93;1.70;;;;;;;;;;5006149;28;20186;-82
2021/06/15 18:04:35;;;;;;;5.73;1.90;;;;;;;;;;4995352;28;20192;-82
2021/06/15 18:07:45;;;;;;;6.17;2.23;;;;;;;;;;5005513;28;20205;-82
2021/06/15 18:10:50;;;;;;;6.67;2.00;;;;;;;;;;5005636;28;20180;-82
2021/06/15 18:13:54;;;;;;;9.97;2.30;;;;;;;;;;5016625;28;20185;-82
2021/06/15 18:16:58;;;;;;;6.60;1.73;;;;;;;;;;4994584;28;20215;-81
2021/06/15 18:20:05;;;;;;;3.03;1.67;;;;;;;;;;5004285;28;20181;-82
2021/06/15 18:23:09;;;;;;;2.53;1.67;;;;;;;;;;5005811;28;20187;-81
2021/06/15 18:26:13;;;;;;;4.03;1.50;;;;;;;;;;5017268;28;20175;-82
2021/06/15 18:29:18;;;;;;;2.83;1.60;;;;;;;;;;5005739;28;20239;-82
2021/06/15 18:32:22;;;;;;;3.97;2.00;;;;;;;;;;5006593;28;20189;-82
2021/06/15 18:35:27;;;;;;;2.23;1.60;;;;;;;;;;5017783;28;20186;-82
2021/06/15 18:38:31;;;;;;;21.87;3.10;;;;;;;;;;5006643;28;20225;-82
2021/06/15 18:41:35;;;;;;;3.97;2.03;;;;;;;;;;5006547;28;20182;-82
2021/06/15 18:44:39;;;;;;;2.17;1.97;;;;;;;;;;4994913;28;20182;-81